Latest Weather Observations for Victoria River Downs

IDD60801

Issued at 4:05 pm CST Thursday 17 April 2014 (issued every 30 minutes, with the page automatically refreshed every 10 minutes)

About weather observations | Map of weather stations | Latest weather observations for NT | Other Formats
Station Details ID: 014825 Name: VICTORIA RIVER DOWNS Lat: -16.40 Lon: 131.01 Height: 88.5 m
Data from the previous 72 hours. | See also: Recent months at Victoria River Downs
Date/Time
CST
Temp
°C
App
Temp
°C
Dew
Point
Rel
Hum
%
Delta-T
°C
Wind Press
QNH
hPa
Press
MSL
hPa
Rain
since 9 am
mm
Dir
 
Spd
km/h
Gust
km/h
Spd
kts
Gust
kts
17/04:00pm 35.2 32.9 11.6 24 14.1 E 15 22 8 12 1009.6 - 0.0
17/03:30pm 35.4 32.0 10.4 22 14.6 ESE 19 32 10 17 1009.9 - 0.0
17/03:00pm 35.5 32.8 11.8 24 14.2 ESE 17 32 9 17 1010.2 1009.8 0.0
17/02:30pm 35.0 32.0 9.4 21 14.7 E 15 26 8 14 1010.5 - 0.0
17/02:00pm 35.3 32.4 11.0 23 14.3 E 17 28 9 15 1010.9 - 0.0
17/01:30pm 35.6 33.0 10.6 22 14.7 ESE 15 28 8 15 1011.3 - 0.0
17/01:00pm 34.5 30.9 8.3 20 14.8 E 17 30 9 16 1011.8 - 0.0
17/12:30pm 33.8 30.2 8.4 21 14.3 ESE 17 33 9 18 1012.4 - 0.0
17/12:00pm 32.8 29.0 7.6 21 13.9 E 17 24 9 13 1013.0 1012.4 0.0
17/11:30am 32.3 28.0 7.9 22 13.5 ESE 20 32 11 17 1013.4 - 0.0
17/11:00am 31.9 27.0 6.9 21 13.6 E 22 33 12 18 1013.8 - 0.0
17/10:30am 31.8 27.5 6.8 21 13.6 E 19 33 10 18 1014.2 - 0.0
17/10:00am 30.8 26.7 7.9 24 12.6 E 19 28 10 15 1014.4 - 0.0
17/09:30am 29.9 26.1 8.9 27 11.7 ESE 19 32 10 17 1014.3 - 0.0
17/09:24am 29.6 25.0 8.1 26 11.8 E 22 32 12 17 1014.3 - 0.0
17/09:00am 27.3 26.9 12.9 41 8.5 SSE 7 11 4 6 1014.2 1013.6 0.0
17/08:30am 24.7 25.0 13.3 49 6.7 SSW 4 7 2 4 1014.0 - 0.0
17/08:00am 23.0 24.4 14.3 58 5.1 CALM 0 0 0 0 1013.8 - 0.0
17/07:30am 20.5 21.9 14.4 68 3.6 CALM 0 6 0 3 1013.5 - 0.0
17/07:00am 21.4 21.1 13.3 60 4.7 SSW 7 11 4 6 1013.2 - 0.0
17/06:30am 20.7 20.9 14.1 66 3.8 SW 6 7 3 4 1012.9 - 0.0
17/06:00am 19.5 19.8 13.4 68 3.5 NW 4 7 2 4 1012.7 1012.1 0.0
17/05:30am 21.1 21.3 14.3 65 4.0 SSW 6 9 3 5 1012.3 - 0.0
17/05:00am 19.9 20.6 14.5 71 3.2 WSW 4 7 2 4 1012.1 - 0.0
17/04:30am 19.6 19.5 14.0 70 3.2 W 7 9 4 5 1011.7 - 0.0
17/04:00am 20.3 20.9 14.2 68 3.6 WNW 4 7 2 4 1011.4 - 0.0
17/03:30am 20.1 20.3 14.2 69 3.4 NW 6 7 3 4 1011.4 - 0.0
17/03:00am 20.3 20.3 14.2 68 3.6 NW 7 7 4 4 1011.3 1010.8 0.0
17/02:30am 21.9 21.8 13.8 60 4.7 SW 7 11 4 6 1011.6 - 0.0
17/02:00am 21.0 22.1 14.6 67 3.8 W 2 7 1 4 1011.9 - 0.0
17/01:30am 21.7 23.2 14.6 64 4.2 CALM 0 0 0 0 1012.2 - 0.0
17/01:00am 22.7 24.3 14.8 61 4.7 CALM 0 0 0 0 1012.6 - 0.0
17/12:30am 23.0 24.3 14.0 57 5.3 CALM 0 0 0 0 1012.6 - 0.0
17/12:00am 23.0 24.3 14.0 57 5.3 SW 0 0 0 0 1012.8 1012.2 0.0
 
Date/Time
CST
Temp
°C
App
Temp
°C
Dew
Point
Rel
Hum
%
Delta-T
°C
Wind Press
QNH
hPa
Press
MSL
hPa
Rain
since 9 am
mm
Dir
 
Spd
km/h
Gust
km/h
Spd
kts
Gust
kts
16/11:30pm 23.0 24.2 13.8 56 5.4 CALM 0 0 0 0 1012.6 - 0.0
16/11:00pm 24.3 24.8 12.9 49 6.6 S 2 6 1 3 1012.6 - 0.0
16/10:30pm 25.4 24.8 12.3 44 7.6 SE 7 11 4 6 1012.5 - 0.0
16/10:00pm 25.9 25.3 12.4 43 7.8 SE 7 9 4 5 1012.3 - 0.0
16/09:30pm 26.0 25.3 12.1 42 8.0 ESE 7 9 4 5 1012.1 - 0.0
16/09:00pm 27.0 25.8 11.5 38 8.9 ESE 9 13 5 7 1011.9 1011.2 0.0
16/08:30pm 27.5 26.3 11.5 37 9.2 SE 9 13 5 7 1011.3 - 0.0
16/08:00pm 27.8 26.7 11.8 37 9.3 SE 9 11 5 6 1010.9 - 0.0
16/07:30pm 28.3 27.5 11.8 36 9.6 SE 7 11 4 6 1010.6 - 0.0
16/07:00pm 29.5 28.0 10.6 31 10.8 SE 9 13 5 7 1010.4 - 0.0
16/06:30pm 31.3 29.7 10.1 27 12.1 SE 9 15 5 8 1010.1 - 0.0
16/06:00pm 33.0 30.5 9.7 24 13.4 SE 13 19 7 10 1009.8 1009.3 0.0
16/05:30pm 33.8 31.7 9.8 23 13.8 ESE 11 15 6 8 1009.5 - 0.0
16/05:00pm 34.2 31.5 8.8 21 14.4 ESE 13 19 7 10 1009.2 - 0.0
16/04:30pm 34.5 31.8 9.0 21 14.5 SE 13 26 7 14 1009.2 - 0.0
16/04:00pm 34.8 33.3 11.9 25 13.7 ESE 11 19 6 10 1009.3 - 0.0
16/03:30pm 34.5 31.4 9.0 21 14.5 E 15 28 8 15 1009.6 - 0.0
16/03:00pm 35.3 33.0 10.4 22 14.6 ESE 13 - 7 - 1009.7 1009.1 0.0
16/02:30pm 35.0 32.2 10.1 22 14.5 ESE 15 24 8 13 1010.0 - 0.0
16/02:00pm 34.5 31.8 11.6 25 13.6 SSE 17 28 9 15 1010.2 - 0.0
16/01:30pm 34.8 32.2 10.6 23 14.2 SE 15 28 8 15 1010.8 - 0.0
16/01:00pm 34.1 31.0 8.7 21 14.4 ESE 15 26 8 14 1011.4 - 0.0
16/12:30pm 33.6 29.8 9.0 22 14.0 E 19 30 10 16 1012.1 - 0.0
16/12:00pm 33.2 29.4 9.9 24 13.4 E 20 32 11 17 1012.8 1012.3 0.0
16/11:30am 32.8 29.7 10.2 25 13.0 E 17 28 9 15 1013.4 - 0.0
16/11:00am 32.2 28.6 9.7 25 12.8 ESE 19 30 10 16 1013.8 - 0.0
16/10:30am 31.2 28.5 10.5 28 11.9 ESE 15 26 8 14 1014.0 - 0.0
16/10:00am 29.2 27.6 11.7 34 10.2 ESE 11 17 6 9 1014.2 - 0.0
16/09:30am 27.1 25.8 11.2 37 9.1 SE 9 15 5 8 1014.3 - 0.0
16/09:00am 24.5 24.0 12.5 47 6.9 SE 7 15 4 8 1014.1 1013.5 0.0
16/08:30am 23.2 22.7 12.8 52 6.0 S 7 11 4 6 1014.1 - 0.0
16/08:00am 21.1 21.9 13.8 63 4.2 SSW 2 9 1 5 1013.9 - 0.0
16/07:30am 18.2 18.4 14.3 78 2.3 SSW 6 7 3 4 1013.6 - 0.0
16/07:00am 17.2 17.0 13.5 79 2.1 WSW 7 9 4 5 1013.3 - 0.0
16/06:30am 16.7 17.1 13.6 82 1.8 W 4 9 2 5 1012.8 - 0.0
16/06:00am 16.9 18.0 13.4 80 2.0 CALM 0 0 0 0 1012.5 1011.9 0.0
16/05:30am 17.8 18.1 13.5 76 2.4 ENE 4 7 2 4 1012.4 - 0.0
16/05:00am 17.6 17.6 13.7 78 2.2 WNW 6 7 3 4 1012.2 - 0.0
16/04:30am 17.8 17.8 13.7 77 2.3 WNW 6 9 3 5 1012.0 - 0.0
16/04:00am 18.2 19.4 13.9 76 2.5 CALM 0 6 0 3 1011.9 - 0.0
16/03:30am 18.2 18.7 13.9 76 2.5 N 4 9 2 5 1011.9 - 0.0
16/03:00am 18.9 19.8 14.0 73 2.8 N 2 7 1 4 1012.0 1011.4 0.0
16/02:30am 19.7 20.2 13.9 69 3.3 W 4 9 2 5 1012.2 - 0.0
16/02:00am 18.9 19.8 14.0 73 2.8 SSW 2 7 1 4 1012.2 - 0.0
16/01:30am 19.4 20.6 13.8 70 3.2 CALM 0 0 0 0 1012.5 - 0.0
16/01:00am 19.7 20.5 13.6 68 3.5 SW 2 7 1 4 1012.7 - 0.0
16/12:30am 20.2 21.3 13.6 66 3.8 CALM 0 0 0 0 1012.9 - 0.0
16/12:00am 20.4 21.4 13.1 63 4.2 CALM 0 0 0 0 1013.1 1012.5 0.0
 
Date/Time
CST
Temp
°C
App
Temp
°C
Dew
Point
Rel
Hum
%
Delta-T
°C
Wind Press
QNH
hPa
Press
MSL
hPa
Rain
since 9 am
mm
Dir
 
Spd
km/h
Gust
km/h
Spd
kts
Gust
kts
15/11:30pm 21.6 21.5 13.2 59 4.8 SE 6 7 3 4 1013.1 - 0.0
15/11:00pm 23.8 23.3 12.1 48 6.7 SE 6 7 3 4 1013.2 - 0.0
15/10:30pm 24.5 23.4 11.8 45 7.2 SSE 9 11 5 6 1013.1 - 0.0
15/10:00pm 25.2 24.5 12.1 44 7.5 SE 7 11 4 6 1013.0 - 0.0
15/09:30pm 25.6 24.7 11.4 41 8.1 SE 7 9 4 5 1012.8 - 0.0
15/09:00pm 26.4 24.7 11.3 39 8.6 SE 11 17 6 9 1012.6 1012.0 0.0
15/08:30pm 26.4 25.0 12.1 41 8.3 SE 11 15 6 8 1012.3 - 0.0
15/08:00pm 26.8 25.7 12.1 40 8.5 SE 9 11 5 6 1011.8 - 0.0
15/07:30pm 27.3 26.4 12.5 40 8.6 SSE 9 11 5 6 1011.1 - 0.0
15/07:00pm 28.7 27.3 10.8 33 10.2 SSE 9 11 5 6 1010.5 - 0.0
15/06:30pm 30.3 28.9 10.8 30 11.2 SSE 9 11 5 6 1010.2 - 0.0
15/06:00pm 32.0 30.0 10.1 26 12.6 SE 11 17 6 9 1010.0 1009.4 0.0
15/05:30pm 33.0 30.5 9.7 24 13.3 SE 13 19 7 10 1009.7 - 0.0
15/05:00pm 33.3 30.9 10.0 24 13.4 ESE 13 26 7 14 1009.5 - 0.0
15/04:30pm 34.0 31.9 9.9 23 13.9 ESE 11 17 6 9 1009.4 - 0.0
15/04:00pm 34.0 31.2 9.9 23 13.9 ESE 15 24 8 13 1009.4 - 0.0
15/03:30pm 33.9 31.5 8.5 21 14.3 SSE 11 19 6 10 1009.4 - 0.0
15/03:00pm 33.8 31.3 8.4 21 14.3 E 11 26 6 14 1009.6 1009.2 0.0
15/02:30pm 34.0 32.0 8.6 21 14.4 S 9 15 5 8 1010.0 - 0.0
15/02:00pm 34.1 31.7 8.7 21 14.4 S 11 22 6 12 1010.5 - 0.0
15/01:30pm 33.3 30.7 9.4 23 13.6 SE 13 19 7 10 1010.9 - 0.0
15/01:00pm 32.6 30.3 10.6 26 12.7 S 13 19 7 10 1011.6 - 0.0
15/12:30pm 32.5 30.2 10.5 26 12.7 SSE 13 24 7 13 1012.2 - 0.0
15/12:00pm 31.9 28.5 10.6 27 12.3 ESE 19 32 10 17 1012.8 1012.3 0.0
15/11:30am 31.5 29.8 11.3 29 11.8 S 11 19 6 10 1013.2 - 0.0
15/11:00am 30.5 27.8 10.5 29 11.5 SSE 15 26 8 14 1013.8 - 0.0
15/10:30am 29.5 27.1 11.5 33 10.4 SSE 15 28 8 15 1014.1 - 0.0
15/10:00am 27.9 26.3 11.5 36 9.4 SSE 11 19 6 10 1014.4 - 0.0
15/09:30am 26.2 23.6 11.9 41 8.2 SE 17 24 9 13 1014.4 - 0.0
15/09:00am 24.5 22.8 12.5 47 6.9 SSE 13 20 7 11 1014.3 1013.8 0.0
15/08:30am 22.9 21.9 12.2 51 6.1 S 9 17 5 9 1014.2 - 0.0
15/08:29am 22.7 21.7 12.3 52 5.9 S 9 13 5 7 1014.1 - 0.0
15/08:00am 20.9 21.7 13.6 63 4.2 W 2 7 1 4 1013.9 - 0.0
15/07:30am 17.9 17.7 13.6 76 2.4 W 7 7 4 4 1013.5 - 0.0
15/07:00am 17.3 17.0 13.2 77 2.3 WNW 7 9 4 5 1013.2 - 0.0
15/06:30am 17.5 17.4 13.2 76 2.4 W 6 7 3 4 1012.9 - 0.0
15/06:00am 17.5 17.6 13.8 79 2.1 WSW 6 7 3 4 1012.7 1012.1 0.0
15/05:30am 17.5 18.7 13.8 79 2.1 CALM 0 0 0 0 1012.5 - 0.0
15/05:00am 17.8 19.0 13.7 77 2.3 CALM 0 6 0 3 1012.3 - 0.0
15/04:30am 18.0 19.3 14.1 78 2.2 CALM 0 0 0 0 1012.2 - 0.0
15/04:00am 18.9 18.9 13.7 72 3.0 SSW 6 7 3 4 1012.1 - 0.0
15/03:30am 19.5 20.7 13.7 69 3.3 CALM 0 4 0 2 1012.1 - 0.0
15/03:00am 22.0 21.6 13.1 57 5.1 S 7 9 4 5 1012.1 1011.5 0.0
15/02:30am 21.2 20.8 13.1 60 4.6 S 7 9 4 5 1012.1 - 0.0
15/02:00am 22.4 22.2 12.9 55 5.5 S 6 7 3 4 1012.2 - 0.0
15/01:30am 22.5 22.1 13.0 55 5.5 S 7 11 4 6 1012.2 - 0.0
15/01:00am 23.0 22.7 13.2 54 5.7 S 7 11 4 6 1012.4 - 0.0
15/12:30am 22.7 22.6 13.2 55 5.5 SSE 6 9 3 5 1012.4 - 0.0
15/12:00am 23.8 23.5 13.4 52 6.1 SSE 7 11 4 6 1012.5 1011.9 0.0
 
Date/Time
CST
Temp
°C
App
Temp
°C
Dew
Point
Rel
Hum
%
Delta-T
°C
Wind Press
QNH
hPa
Press
MSL
hPa
Rain
since 9 am
mm
Dir
 
Spd
km/h
Gust
km/h
Spd
kts
Gust
kts
14/11:30pm 24.1 23.5 13.6 52 6.2 S 9 11 5 6 1012.3 - 0.0
14/11:00pm 24.2 23.9 13.4 51 6.3 SSE 7 11 4 6 1012.2 - 0.0
14/10:30pm 24.8 24.4 13.0 47 6.9 SSE 7 11 4 6 1012.2 - 0.0
14/10:00pm 25.4 24.8 13.6 48 7.0 SSE 9 11 5 6 1012.2 - 0.0
14/09:30pm 25.9 25.6 13.4 46 7.4 SSE 7 9 4 5 1012.2 - 0.0
14/09:00pm 25.4 25.6 14.8 52 6.4 SSE 7 9 4 5 1012.0 1011.4 0.0
14/08:30pm 25.6 25.9 15.0 52 6.4 SE 7 9 4 5 1011.8 - 0.0
14/08:00pm 26.1 26.8 15.5 52 6.5 S 6 7 3 4 1011.2 - 0.0
14/07:30pm 27.2 27.5 14.9 47 7.5 S 7 9 4 5 1010.5 - 0.0
14/07:00pm 28.2 28.2 14.1 42 8.5 SSW 7 9 4 5 1010.1 - 0.0
14/06:30pm 30.2 29.1 12.1 32 10.6 S 9 11 5 6 1009.7 - 0.0
14/06:00pm 31.7 30.6 12.0 30 11.6 S 9 13 5 7 1009.4 1008.9 0.0
14/05:30pm 33.1 32.2 12.7 29 12.2 SW 9 13 5 7 1009.2 - 0.0
14/05:00pm 33.2 31.8 12.2 28 12.5 SW 11 17 6 9 1008.9 - 0.0
14/04:30pm 33.3 32.5 12.9 29 12.3 SSW 9 13 5 7 1008.7 - 0.0

Other Formats:

Comma delimited format used in spreadsheet applications
http://www.bom.gov.au/fwo/IDD60801/IDD60801.94232.axf

JavaScript Object Notation format (JSON) in row-major order
http://www.bom.gov.au/fwo/IDD60801/IDD60801.94232.json